createdAt,value
2019-01-16T00:13:23.546Z,99931.51
2019-01-16T00:16:10.850Z,99924.59
2019-01-16T00:19:00.484Z,99924.53
2019-01-16T00:21:57.674Z,99919.00
2019-01-16T00:24:56.413Z,99920.48
2019-01-16T00:27:43.354Z,99924.23
2019-01-16T00:30:34.996Z,99921.69
2019-01-16T00:43:44.328Z,99925.56
2019-01-16T00:58:20.054Z,99930.69
2019-01-16T13:08:27.433Z,99632.19
2019-01-16T13:22:47.078Z,99623.44
2019-01-16T13:40:21.425Z,99604.58
2019-01-16T13:58:04.313Z,99585.47
2019-01-16T14:01:23.463Z,99582.70
2019-01-16T14:25:41.944Z,99568.22
2019-01-16T14:28:28.615Z,99577.30
2019-01-16T14:31:13.409Z,99584.13
2019-01-16T14:34:07.586Z,99580.29
2019-01-16T14:37:04.537Z,99564.95
2019-01-16T14:40:10.640Z,99572.02
2019-01-16T14:43:17.211Z,99567.11
2019-01-16T14:46:03.800Z,99562.69
2019-01-16T14:48:54.613Z,99569.45
2019-01-16T14:51:42.014Z,99566.84
2019-01-16T14:54:23.205Z,99575.80
2019-01-16T14:57:10.106Z,99566.74
2019-01-16T14:59:56.952Z,99556.47
2019-01-16T15:02:55.433Z,99551.59
2019-01-16T15:05:41.986Z,99541.99
2019-01-16T15:08:42.669Z,99531.02
2019-01-16T15:11:36.633Z,99543.47
2019-01-16T15:14:42.948Z,99540.69
2019-01-16T15:17:29.437Z,99549.89
2019-01-16T15:20:15.948Z,99542.59
2019-01-16T15:23:14.429Z,99527.86
2019-01-16T15:26:08.508Z,99527.61
2019-01-16T15:29:06.467Z,99534.81
2019-01-16T15:32:04.298Z,99535.95
2019-01-16T15:34:44.504Z,99540.74
2019-01-16T15:37:38.674Z,99535.23
2019-01-16T15:40:38.726Z,99532.39
2019-01-16T15:43:32.976Z,99525.55
2019-01-16T15:46:24.145Z,99527.19
2019-01-16T15:49:16.968Z,99525.29
2019-01-16T15:52:17.271Z,99519.24
2019-01-16T15:55:03.441Z,99516.03
2019-01-16T15:58:03.800Z,99517.68
2019-01-16T16:01:10.166Z,99507.17
2019-01-16T16:04:16.350Z,99507.17
2019-01-16T16:07:05.350Z,99507.17
2019-01-16T16:09:56.754Z,99507.77
2019-01-16T16:12:36.238Z,99511.23
2019-01-16T16:15:24.201Z,99510.88
2019-01-16T16:21:11.487Z,99507.94
2019-01-16T16:24:05.395Z,99501.71
2019-01-16T16:26:52.501Z,99494.91
2019-01-16T16:29:39.189Z,99498.75
2019-01-16T16:32:43.063Z,99488.95
2019-01-16T16:35:29.428Z,99485.65
2019-01-16T16:38:13.563Z,99482.42
2019-01-16T16:41:00.474Z,99485.26
2019-01-16T16:43:36.969Z,99468.81
2019-01-16T16:46:21.805Z,99472.05
2019-01-16T16:49:16.531Z,99446.30
2019-01-16T16:52:10.071Z,99443.52
2019-01-16T16:54:56.366Z,99436.34
2019-01-16T16:57:44.532Z,99428.94
2019-01-16T17:00:45.615Z,99422.97
2019-01-16T17:03:29.539Z,99421.09
2019-01-16T17:06:19.188Z,99414.78
2019-01-16T17:09:12.759Z,99417.05
2019-01-16T17:12:14.105Z,99399.87
2019-01-16T17:14:52.003Z,99404.44
2019-01-16T17:17:59.039Z,99410.91
2019-01-16T17:20:49.099Z,99415.64
2019-01-16T17:23:40.552Z,99410.56
2019-01-16T17:26:38.520Z,99403.97
2019-01-16T17:29:23.935Z,99408.00
2019-01-16T17:32:11.120Z,99384.59
2019-01-16T17:38:03.340Z,99369.23
2019-01-16T17:40:55.316Z,99374.70
2019-01-16T17:43:45.986Z,99373.60
2019-01-16T17:46:34.380Z,99360.42
2019-01-16T17:49:21.742Z,99341.97
2019-01-16T17:52:10.219Z,99355.80
2019-01-16T17:55:13.027Z,99356.20
2019-01-16T17:58:00.249Z,99355.34
2019-01-16T18:01:06.925Z,99335.10
2019-01-16T18:04:10.401Z,99345.38
2019-01-16T18:07:17.308Z,99347.57
2019-01-16T18:10:04.227Z,99339.66
2019-01-16T18:13:00.719Z,99342.00
2019-01-16T18:15:43.196Z,99342.80
2019-01-16T18:18:30.705Z,99338.76
2019-01-16T18:21:23.967Z,99334.37
2019-01-16T18:24:16.968Z,99328.05
2019-01-16T18:27:17.970Z,99322.49
2019-01-16T18:30:05.116Z,99322.94
2019-01-16T18:33:00.462Z,99323.00
2019-01-16T18:35:47.879Z,99321.18
2019-01-16T18:38:39.393Z,99319.70
2019-01-16T18:41:40.623Z,99312.28
2019-01-16T18:44:41.323Z,99313.72
2019-01-16T18:47:31.846Z,99320.19
2019-01-16T18:50:19.308Z,99309.53
2019-01-16T18:53:06.945Z,99297.52
2019-01-16T18:55:58.130Z,99297.75
2019-01-16T18:58:44.971Z,99299.83
2019-01-16T19:01:36.309Z,99289.33
2019-01-16T19:04:24.787Z,99281.28
2019-01-16T19:07:26.359Z,99268.27
2019-01-16T19:10:37.123Z,99261.87
2019-01-16T19:13:28.182Z,99264.41
2019-01-16T19:16:34.462Z,99261.22
2019-01-16T19:19:21.405Z,99264.80
2019-01-16T19:22:04.968Z,99260.91
2019-01-16T19:24:56.755Z,99268.68
2019-01-16T19:27:45.999Z,99265.02
2019-01-16T19:30:32.269Z,99268.34
2019-01-16T19:33:23.890Z,99253.55
2019-01-16T19:36:27.255Z,99256.28
2019-01-16T19:39:14.127Z,99263.91
2019-01-16T19:42:14.603Z,99251.12
2019-01-16T19:45:00.994Z,99247.20
2019-01-16T19:48:04.262Z,99232.56
2019-01-16T19:50:52.898Z,99242.50
2019-01-16T19:53:41.208Z,99233.53
2019-01-16T19:56:28.644Z,99225.67
2019-01-16T19:59:16.967Z,99226.71
2019-01-16T20:02:03.780Z,99216.44
2019-01-16T20:04:48.391Z,99205.39
2019-01-16T20:07:30.139Z,99211.31
2019-01-16T20:10:36.124Z,99209.46
2019-01-16T20:13:27.000Z,99216.39
2019-01-16T20:16:22.693Z,99210.88
2019-01-16T20:19:02.214Z,99195.80
2019-01-16T20:21:44.100Z,99196.88
2019-01-16T20:24:31.807Z,99201.27
2019-01-16T20:27:22.320Z,99189.42
2019-01-16T20:30:09.565Z,99187.27
2019-01-16T20:32:56.786Z,99191.65
2019-01-16T20:35:57.690Z,99190.57
2019-01-16T20:38:48.080Z,99182.14
2019-01-16T20:41:47.551Z,99185.48
2019-01-16T20:44:45.128Z,99174.52
2019-01-16T20:47:36.075Z,99172.33
2019-01-16T20:50:30.766Z,99177.33
2019-01-16T20:53:17.458Z,99174.95
2019-01-16T20:56:15.282Z,99167.63
2019-01-16T20:58:56.158Z,99162.50
2019-01-16T21:01:56.617Z,99163.55
2019-01-16T21:04:58.478Z,99168.77
2019-01-16T21:07:35.294Z,99150.81
2019-01-16T21:10:25.499Z,99150.73
2019-01-16T21:13:12.574Z,99147.13
2019-01-16T21:16:16.353Z,99136.08
2019-01-16T21:19:16.893Z,99147.14
2019-01-16T21:22:05.769Z,99137.83
2019-01-16T21:24:54.526Z,99133.50
2019-01-16T21:27:42.124Z,99123.70
2019-01-16T21:30:30.890Z,99122.42
2019-01-16T21:33:18.266Z,99121.92
2019-01-16T21:36:09.708Z,99117.62
2019-01-16T21:38:58.683Z,99109.12
2019-01-16T21:41:39.871Z,99108.64
2019-01-16T21:44:24.670Z,99094.34
2019-01-16T21:47:13.109Z,99094.74
2019-01-16T21:49:58.218Z,99104.28
2019-01-16T21:52:56.992Z,99101.28
2019-01-16T21:55:56.951Z,99094.31
2019-01-16T21:58:49.348Z,99087.77
2019-01-16T22:01:35.048Z,99083.34
2019-01-16T22:04:23.888Z,99084.52
2019-01-16T22:07:12.458Z,99085.59
2019-01-16T22:10:10.636Z,99085.47
2019-01-16T22:12:55.883Z,99081.45
2019-01-16T22:15:56.552Z,99078.95
2019-01-16T22:18:43.727Z,99065.12
2019-01-16T22:21:19.970Z,99063.34
2019-01-16T22:24:04.228Z,99058.83
2019-01-16T22:26:58.468Z,99057.98
2019-01-16T22:29:45.273Z,99048.02
2019-01-16T22:32:34.714Z,99032.27
2019-01-16T22:35:23.546Z,99014.07
2019-01-16T22:38:06.557Z,99008.86
2019-01-16T22:40:53.821Z,98995.09
2019-01-16T22:43:45.098Z,98995.09
2019-01-16T22:46:28.708Z,99000.33
2019-01-16T22:49:08.901Z,98980.69
2019-01-16T22:51:48.456Z,98973.94
2019-01-16T22:54:30.884Z,98963.45
2019-01-16T22:57:25.261Z,98959.53
2019-01-16T23:00:25.728Z,98983.94
2019-01-16T23:03:14.070Z,98955.14
2019-01-16T23:06:03.184Z,98949.31
2019-01-16T23:08:51.333Z,98945.73
2019-01-16T23:11:43.095Z,98950.13
2019-01-16T23:14:49.029Z,98919.80
2019-01-16T23:17:37.028Z,98939.20
2019-01-16T23:20:29.414Z,98897.18
2019-01-16T23:23:11.834Z,98922.65
2019-01-16T23:26:03.271Z,98925.02
2019-01-16T23:29:05.199Z,98915.52
2019-01-16T23:31:40.282Z,98899.55
2019-01-16T23:34:17.789Z,98875.64
2019-01-16T23:37:04.773Z,98894.06
2019-01-16T23:39:54.150Z,98894.53
2019-01-16T23:42:42.546Z,98902.39
2019-01-16T23:45:40.486Z,98895.37
2019-01-16T23:48:24.914Z,98910.63
2019-01-16T23:51:19.637Z,98921.91
2019-01-16T23:54:06.844Z,98897.41
2019-01-16T23:57:04.456Z,98915.86
